Time;durP1;ratioP1;P1;durP2;ratioP2;P2;SDS_P1;SDS_P2;PMS_P1;PMS_P2;Temp;Humidity;BMP_temperature;BMP_pressure;BME280_temperature;BME280_humidity;BME280_pressure;Samples;Min_cycle;Max_cycle;Signal;HPM_P1;HPM_P2
2022/07/26 00:02:04;;;;;;;0.65;0.20;;;18.30;99.90;;;;;;5126548;28;20036;-83
2022/07/26 00:04:31;;;;;;;0.10;0.10;;;18.30;99.90;;;;;;5097713;28;20036;-87
2022/07/26 00:06:58;;;;;;;0.15;0.08;;;18.20;99.90;;;;;;5148538;28;20043;-83
2022/07/26 00:09:25;;;;;;;0.65;0.28;;;18.20;99.90;;;;;;5131086;28;20039;-84
2022/07/26 00:11:52;;;;;;;0.50;0.30;;;18.20;99.90;;;;;;5147394;28;20039;-84
2022/07/26 00:14:19;;;;;;;0.22;0.10;;;18.20;99.90;;;;;;5164379;27;20036;-87
2022/07/26 00:16:45;;;;;;;0.00;0.00;;;18.10;99.90;;;;;;5130310;28;20103;-87
2022/07/26 00:19:12;;;;;;;0.30;0.05;;;18.10;99.90;;;;;;5147868;28;20079;-86
2022/07/26 00:21:39;;;;;;;0.10;0.10;;;18.10;99.90;;;;;;5147476;28;20040;-87
2022/07/26 00:24:06;;;;;;;0.17;0.17;;;18.10;99.90;;;;;;5146438;28;20081;-87
2022/07/26 00:26:33;;;;;;;0.10;0.10;;;18.10;99.90;;;;;;5113014;28;20040;-87
2022/07/26 00:29:02;;;;;;;0.30;0.20;;;18.20;99.90;;;;;;5113551;28;20046;-87
2022/07/26 00:31:30;;;;;;;0.10;0.10;;;18.20;99.90;;;;;;5129900;28;20035;-87
2022/07/26 00:33:57;;;;;;;0.10;0.10;;;18.20;99.90;;;;;;5147402;28;20047;-83
2022/07/26 00:36:24;;;;;;;0.20;0.20;;;18.20;99.90;;;;;;5163932;27;20043;-84
2022/07/26 00:38:51;;;;;;;0.10;0.10;;;18.30;99.90;;;;;;5129915;28;20143;-83
2022/07/26 00:41:18;;;;;;;0.10;0.10;;;18.20;99.90;;;;;;5129796;28;20091;-83
2022/07/26 00:43:58;;;;;;;0.10;0.10;;;18.20;99.90;;;;;;5129560;28;20039;-83
2022/07/26 00:46:25;;;;;;;0.43;0.38;;;18.20;99.90;;;;;;5143198;28;20049;-87
2022/07/26 00:48:52;;;;;;;0.05;0.05;;;18.20;99.90;;;;;;5109542;28;20086;-83
2022/07/26 00:51:19;;;;;;;0.10;0.10;;;18.20;99.90;;;;;;5126686;28;20043;-87
2022/07/26 00:53:47;;;;;;;0.00;0.00;;;18.20;99.90;;;;;;5126581;28;20036;-83
2022/07/26 00:56:15;;;;;;;0.03;0.03;;;18.20;99.90;;;;;;5160246;27;20047;-83
2022/07/26 00:58:42;;;;;;;0.10;0.10;;;18.20;99.90;;;;;;5146640;28;20036;-87
2022/07/26 01:01:09;;;;;;;0.08;0.08;;;18.20;99.90;;;;;;5129723;28;20117;-83
2022/07/26 01:03:36;;;;;;;0.55;0.40;;;18.20;99.90;;;;;;5129911;28;20086;-83
2022/07/26 01:06:04;;;;;;;0.00;0.00;;;18.20;99.90;;;;;;5146151;28;20445;-83
2022/07/26 01:08:32;;;;;;;0.28;0.20;;;18.20;99.90;;;;;;5145952;28;20140;-84
2022/07/26 01:10:58;;;;;;;0.10;0.10;;;18.20;99.90;;;;;;5139020;28;20172;-84
2022/07/26 01:13:25;;;;;;;0.08;0.08;;;18.20;99.90;;;;;;5133224;28;20115;-84
2022/07/26 01:15:52;;;;;;;0.35;0.20;;;18.20;99.90;;;;;;5106043;28;20070;-84
2022/07/26 01:18:19;;;;;;;2.85;0.52;;;18.20;99.90;;;;;;5109651;28;20036;-83
2022/07/26 01:20:47;;;;;;;0.10;0.10;;;18.30;99.90;;;;;;5092688;28;20051;-83
2022/07/26 01:23:14;;;;;;;0.10;0.10;;;18.20;99.90;;;;;;5126842;28;20404;-83
2022/07/26 01:25:41;;;;;;;0.47;0.20;;;18.30;99.90;;;;;;5093458;28;20123;-83
2022/07/26 01:28:07;;;;;;;0.30;0.30;;;18.20;99.90;;;;;;5109838;28;20374;-83
2022/07/26 01:30:34;;;;;;;0.10;0.10;;;18.30;99.90;;;;;;5093065;28;20048;-83
2022/07/26 01:33:01;;;;;;;2.03;0.68;;;18.30;99.90;;;;;;5092995;28;20496;-87
2022/07/26 01:35:27;;;;;;;0.38;0.22;;;18.30;99.90;;;;;;5143953;28;20043;-86
2022/07/26 01:37:54;;;;;;;0.00;0.00;;;18.30;99.90;;;;;;5147306;28;20427;-87
2022/07/26 01:40:21;;;;;;;0.17;0.17;;;18.30;99.90;;;;;;5130380;28;20073;-86
2022/07/26 01:42:47;;;;;;;0.30;0.20;;;18.30;99.90;;;;;;5146847;28;20059;-87
2022/07/26 01:45:14;;;;;;;0.20;0.20;;;18.30;99.90;;;;;;5146403;28;20050;-83
2022/07/26 01:47:41;;;;;;;0.10;0.10;;;18.30;99.90;;;;;;5129765;28;20043;-87
2022/07/26 01:50:08;;;;;;;0.10;0.10;;;18.30;99.90;;;;;;5129762;28;20039;-87
2022/07/26 01:52:36;;;;;;;0.68;0.32;;;18.30;99.90;;;;;;5146860;28;20214;-83
2022/07/26 01:55:03;;;;;;;0.10;0.10;;;18.30;99.90;;;;;;5129687;28;20126;-87
2022/07/26 01:57:29;;;;;;;0.03;0.03;;;18.30;99.90;;;;;;5146496;28;20074;-87
2022/07/26 01:59:56;;;;;;;0.10;0.10;;;18.20;99.90;;;;;;5129371;28;20044;-83
2022/07/26 02:02:23;;;;;;;0.20;0.20;;;18.20;99.90;;;;;;5130030;28;20113;-87
2022/07/26 02:04:58;;;;;;;0.10;0.10;;;18.20;99.90;;;;;;5146615;28;20047;-83
2022/07/26 02:07:27;;;;;;;0.10;0.10;;;18.20;99.90;;;;;;5130768;28;20036;-87
2022/07/26 02:09:55;;;;;;;0.13;0.00;;;18.30;99.90;;;;;;5133557;28;20036;-87
2022/07/26 02:12:22;;;;;;;0.10;0.10;;;18.20;99.90;;;;;;5147774;28;20473;-83
2022/07/26 02:14:49;;;;;;;0.10;0.10;;;18.30;99.90;;;;;;5155304;27;20036;-84
2022/07/26 02:17:17;;;;;;;0.10;0.10;;;18.30;99.90;;;;;;5127619;28;20044;-87
2022/07/26 02:19:44;;;;;;;0.00;0.00;;;18.20;99.90;;;;;;5126425;28;20039;-84
2022/07/26 02:22:10;;;;;;;0.10;0.10;;;18.20;99.90;;;;;;5104700;28;20055;-86
2022/07/26 02:24:37;;;;;;;0.10;0.10;;;18.20;99.90;;;;;;5119636;28;20036;-87
2022/07/26 02:27:04;;;;;;;0.00;0.00;;;18.20;99.90;;;;;;5159097;27;20043;-87
2022/07/26 02:29:31;;;;;;;0.20;0.10;;;18.30;99.90;;;;;;5147021;28;20553;-84
2022/07/26 02:31:59;;;;;;;0.52;0.15;;;18.20;99.90;;;;;;5128559;28;20032;-82
2022/07/26 02:34:26;;;;;;;0.40;0.25;;;18.20;99.90;;;;;;5129759;28;20797;-87
2022/07/26 02:36:53;;;;;;;0.10;0.10;;;18.20;99.90;;;;;;5129725;28;20040;-84
2022/07/26 02:39:20;;;;;;;1.67;0.40;;;18.20;99.90;;;;;;5134009;28;20043;-87
2022/07/26 02:41:47;;;;;;;0.05;0.05;;;18.20;99.90;;;;;;5132875;28;20059;-84
2022/07/26 02:44:14;;;;;;;0.10;0.08;;;18.20;99.90;;;;;;5150191;27;20517;-85
2022/07/26 02:46:41;;;;;;;0.38;0.22;;;18.20;99.90;;;;;;5149641;28;20100;-87
2022/07/26 02:49:07;;;;;;;0.10;0.10;;;18.20;99.90;;;;;;5133215;28;20127;-87
2022/07/26 02:51:34;;;;;;;0.55;0.25;;;18.20;99.90;;;;;;5132463;28;20039;-84
2022/07/26 02:54:01;;;;;;;0.20;0.20;;;18.20;99.90;;;;;;5132427;28;20204;-83
2022/07/26 02:56:28;;;;;;;0.00;0.00;;;18.20;99.90;;;;;;5132326;28;20046;-87
2022/07/26 02:58:54;;;;;;;0.10;0.10;;;18.20;99.90;;;;;;5149672;28;20036;-84
2022/07/26 03:01:21;;;;;;;0.00;0.00;;;18.20;99.90;;;;;;5149392;28;20118;-87
2022/07/26 03:03:48;;;;;;;0.17;0.15;;;18.20;99.90;;;;;;5166735;27;20035;-87
2022/07/26 03:06:15;;;;;;;0.17;0.15;;;18.10;99.90;;;;;;5149725;28;20039;-84
2022/07/26 03:08:41;;;;;;;0.47;0.30;;;18.10;99.90;;;;;;5149889;28;20039;-87
2022/07/26 03:11:08;;;;;;;0.73;0.38;;;18.00;99.90;;;;;;5132355;28;20135;-83
2022/07/26 03:13:35;;;;;;;0.10;0.10;;;18.00;99.90;;;;;;5149397;28;20042;-87
2022/07/26 03:16:02;;;;;;;0.00;0.00;;;17.70;99.90;;;;;;5131705;28;20043;-83
2022/07/26 03:18:29;;;;;;;0.15;0.15;;;17.60;99.90;;;;;;5148707;28;20032;-86
2022/07/26 03:20:55;;;;;;;0.30;0.22;;;17.60;99.90;;;;;;5149086;28;20437;-84
2022/07/26 03:23:22;;;;;;;0.00;0.00;;;17.50;99.90;;;;;;5132394;28;20044;-85
2022/07/26 03:25:49;;;;;;;0.17;0.00;;;17.40;99.90;;;;;;5131887;28;20453;-84
2022/07/26 03:28:16;;;;;;;0.10;0.10;;;17.40;99.90;;;;;;5132493;28;20130;-86
2022/07/26 03:30:42;;;;;;;0.05;0.05;;;17.40;99.90;;;;;;5149183;28;20036;-84
2022/07/26 03:33:09;;;;;;;0.10;0.10;;;17.40;99.90;;;;;;5149330;28;20032;-87
2022/07/26 03:35:39;;;;;;;0.10;0.10;;;17.30;99.90;;;;;;5132417;28;20130;-87
2022/07/26 03:38:05;;;;;;;0.00;0.00;;;17.30;99.90;;;;;;5131599;28;20077;-86
2022/07/26 03:40:32;;;;;;;0.00;0.00;;;17.30;99.90;;;;;;5131911;28;20043;-87
2022/07/26 03:42:59;;;;;;;0.03;0.03;;;17.30;99.90;;;;;;5148396;28;20058;-83
2022/07/26 03:45:26;;;;;;;0.10;0.10;;;17.20;99.90;;;;;;5131532;28;20046;-84
2022/07/26 03:47:52;;;;;;;0.00;0.00;;;17.20;99.90;;;;;;5130976;28;20503;-84
2022/07/26 03:50:19;;;;;;;0.00;0.00;;;17.20;99.90;;;;;;5144132;28;20028;-86
2022/07/26 03:52:46;;;;;;;0.10;0.00;;;17.20;99.90;;;;;;5128777;28;20108;-86
2022/07/26 03:57:58;;;;;;;0.00;0.00;;;17.20;99.90;;;;;;5146126;28;20508;-83
2022/07/26 04:00:24;;;;;;;0.10;0.00;;;17.20;99.90;;;;;;5139725;28;20039;-83
2022/07/26 04:02:51;;;;;;;0.00;0.00;;;17.20;99.90;;;;;;5146995;28;20096;-86
2022/07/26 04:05:18;;;;;;;0.10;0.10;;;17.10;99.90;;;;;;5115613;28;20040;-83
2022/07/26 04:07:45;;;;;;;0.00;0.00;;;17.10;99.90;;;;;;5094413;28;20032;-86
2022/07/26 04:10:14;;;;;;;0.10;0.10;;;17.10;99.90;;;;;;5093897;28;20443;-83
2022/07/26 04:12:41;;;;;;;0.00;0.00;;;17.10;99.90;;;;;;5144730;28;20040;-83
2022/07/26 04:15:09;;;;;;;0.00;0.00;;;17.10;99.90;;;;;;5094201;28;20374;-83
2022/07/26 04:17:40;;;;;;;0.00;0.00;;;17.10;99.90;;;;;;5094657;28;20043;-83
2022/07/26 04:20:09;;;;;;;0.00;0.00;;;16.90;99.90;;;;;;5110855;28;20119;-83
2022/07/26 04:22:36;;;;;;;0.10;0.10;;;17.00;99.90;;;;;;5127328;28;20032;-83
2022/07/26 04:25:04;;;;;;;0.20;0.10;;;17.00;99.90;;;;;;5144493;28;20106;-86
2022/07/26 04:27:32;;;;;;;0.08;0.08;;;17.00;99.90;;;;;;5111014;28;20108;-83
2022/07/26 04:29:58;;;;;;;0.00;0.00;;;16.90;99.90;;;;;;5093292;28;20382;-87
2022/07/26 04:32:25;;;;;;;0.00;0.00;;;17.00;99.90;;;;;;5110398;28;20051;-84
2022/07/26 04:34:53;;;;;;;0.00;0.00;;;17.00;99.90;;;;;;5093754;28;20051;-85
2022/07/26 04:37:20;;;;;;;0.10;0.00;;;17.00;99.90;;;;;;5112179;28;20074;-83
2022/07/26 04:39:46;;;;;;;0.00;0.00;;;16.90;99.90;;;;;;5165055;27;20482;-87
2022/07/26 04:42:13;;;;;;;0.00;0.00;;;16.90;99.90;;;;;;5147279;28;20056;-83
2022/07/26 04:44:40;;;;;;;0.10;0.10;;;17.00;99.90;;;;;;5130939;28;20046;-83
2022/07/26 04:47:07;;;;;;;0.00;0.00;;;16.90;99.90;;;;;;5130077;28;20136;-83
2022/07/26 04:49:33;;;;;;;0.00;0.00;;;17.00;99.90;;;;;;5130773;28;20031;-83
2022/07/26 04:52:00;;;;;;;0.00;0.00;;;16.90;99.90;;;;;;5130663;28;20043;-84
2022/07/26 04:54:27;;;;;;;0.00;0.00;;;16.90;99.90;;;;;;5147250;28;20186;-83
2022/07/26 04:56:53;;;;;;;0.00;0.00;;;16.90;99.90;;;;;;5147459;28;20039;-87
2022/07/26 04:59:20;;;;;;;0.10;0.10;;;16.90;99.90;;;;;;5147582;28;20043;-87
2022/07/26 05:01:47;;;;;;;0.05;0.05;;;16.90;99.90;;;;;;5130574;28;20130;-83
2022/07/26 05:04:13;;;;;;;0.00;0.00;;;17.00;99.90;;;;;;5146771;28;20073;-87
2022/07/26 05:06:40;;;;;;;0.03;0.03;;;17.00;99.90;;;;;;5147864;28;20044;-84
2022/07/26 05:09:07;;;;;;;0.00;0.00;;;17.00;99.90;;;;;;5146846;28;20046;-87
2022/07/26 05:11:34;;;;;;;0.00;0.00;;;17.00;99.90;;;;;;5130687;28;20032;-84
2022/07/26 05:14:01;;;;;;;0.43;0.20;;;17.10;99.90;;;;;;5147400;28;20519;-86
2022/07/26 05:16:27;;;;;;;0.00;0.00;;;17.00;99.90;;;;;;5130947;28;20039;-87
2022/07/26 05:18:54;;;;;;;0.10;0.03;;;17.00;99.90;;;;;;5130954;28;20070;-88
2022/07/26 05:21:21;;;;;;;0.00;0.00;;;17.00;99.90;;;;;;5147048;28;20035;-84
2022/07/26 05:23:47;;;;;;;0.00;0.00;;;16.90;99.90;;;;;;5147153;28;20139;-87
2022/07/26 05:26:14;;;;;;;0.00;0.00;;;17.00;99.90;;;;;;5147362;28;20388;-84
2022/07/26 05:28:41;;;;;;;0.00;0.00;;;17.00;99.90;;;;;;5129753;28;20071;-84
2022/07/26 05:31:08;;;;;;;0.00;0.00;;;16.90;99.90;;;;;;5146720;28;20035;-83
2022/07/26 05:33:34;;;;;;;0.00;0.00;;;16.80;99.90;;;;;;5147479;28;20040;-87
2022/07/26 05:36:01;;;;;;;0.00;0.00;;;16.80;99.90;;;;;;5146669;28;20050;-83
2022/07/26 05:38:28;;;;;;;0.00;0.00;;;16.80;99.90;;;;;;5146792;28;20043;-83
2022/07/26 05:40:55;;;;;;;0.00;0.00;;;16.70;99.90;;;;;;5146345;28;20040;-86
2022/07/26 05:43:21;;;;;;;0.10;0.10;;;16.70;99.90;;;;;;5132314;28;20040;-87
2022/07/26 05:45:48;;;;;;;0.00;0.00;;;16.70;99.90;;;;;;5125868;28;20439;-84
2022/07/26 05:48:15;;;;;;;0.10;0.10;;;16.70;99.90;;;;;;5150740;28;20054;-84
2022/07/26 05:50:41;;;;;;;0.00;0.00;;;16.70;99.90;;;;;;5121029;28;20043;-87
2022/07/26 05:53:09;;;;;;;0.00;0.00;;;16.70;99.90;;;;;;5149375;28;20035;-87
2022/07/26 05:55:35;;;;;;;0.00;0.00;;;16.70;99.90;;;;;;5120037;28;20150;-87
2022/07/26 05:58:02;;;;;;;0.00;0.00;;;16.70;99.90;;;;;;5143038;28;20081;-83
2022/07/26 06:00:29;;;;;;;0.00;0.00;;;16.80;99.90;;;;;;5113466;28;20488;-88
2022/07/26 06:02:56;;;;;;;0.00;0.00;;;16.80;99.90;;;;;;5130192;28;20051;-88
2022/07/26 06:05:22;;;;;;;0.00;0.00;;;16.80;99.90;;;;;;5131824;28;20044;-84
2022/07/26 06:07:49;;;;;;;0.00;0.00;;;16.80;99.90;;;;;;5133873;28;20039;-87
2022/07/26 06:10:16;;;;;;;0.00;0.00;;;16.90;99.90;;;;;;5148027;28;20073;-83
2022/07/26 06:12:42;;;;;;;0.00;0.00;;;16.90;99.90;;;;;;5142539;28;20044;-83
2022/07/26 06:15:09;;;;;;;0.00;0.00;;;16.90;99.90;;;;;;5127483;28;20480;-86
2022/07/26 06:17:42;;;;;;;0.00;0.00;;;16.80;99.90;;;;;;5145108;28;20108;-83
2022/07/26 06:20:10;;;;;;;0.00;0.00;;;16.60;99.90;;;;;;5130055;28;20405;-83
2022/07/26 06:22:36;;;;;;;0.00;0.00;;;16.50;99.90;;;;;;5114995;28;20050;-87
2022/07/26 06:25:03;;;;;;;0.00;0.00;;;16.40;99.90;;;;;;5133237;28;20036;-87
2022/07/26 06:27:31;;;;;;;0.00;0.00;;;16.30;99.90;;;;;;5133760;28;20042;-89
2022/07/26 06:29:58;;;;;;;0.10;0.10;;;16.30;99.90;;;;;;5147098;28;20118;-85
2022/07/26 06:32:25;;;;;;;0.00;0.00;;;16.40;99.90;;;;;;5140751;27;20468;-85
2022/07/26 06:34:51;;;;;;;0.00;0.00;;;16.40;99.90;;;;;;5144806;28;20115;-85
2022/07/26 06:37:18;;;;;;;0.00;0.00;;;16.40;99.90;;;;;;5149500;27;20067;-84
2022/07/26 06:39:45;;;;;;;0.20;0.10;;;16.40;99.90;;;;;;5119098;28;20073;-90
2022/07/26 06:42:12;;;;;;;0.00;0.00;;;16.50;99.90;;;;;;5131276;28;20059;-85
2022/07/26 06:44:38;;;;;;;0.00;0.00;;;16.50;99.90;;;;;;5143385;28;20044;-85
2022/07/26 06:47:05;;;;;;;0.00;0.00;;;16.60;99.90;;;;;;5139858;28;20032;-90
2022/07/26 06:49:32;;;;;;;0.00;0.00;;;16.70;99.90;;;;;;5129906;28;20040;-85
2022/07/26 06:51:59;;;;;;;0.00;0.00;;;16.80;99.90;;;;;;5123284;28;20043;-89
2022/07/26 06:54:25;;;;;;;0.00;0.00;;;16.90;99.90;;;;;;5132237;28;20488;-85
2022/07/26 06:56:52;;;;;;;0.00;0.00;;;16.90;99.90;;;;;;5111385;28;20039;-85
2022/07/26 06:59:19;;;;;;;0.00;0.00;;;17.10;99.90;;;;;;5111629;28;20044;-89
2022/07/26 07:01:45;;;;;;;0.00;0.00;;;17.20;99.90;;;;;;5148422;28;20044;-90
2022/07/26 07:04:12;;;;;;;0.00;0.00;;;17.20;99.90;;;;;;5132394;28;20047;-90
2022/07/26 07:06:39;;;;;;;0.00;0.00;;;17.10;99.90;;;;;;5149085;28;20039;-85
2022/07/26 07:09:05;;;;;;;0.00;0.00;;;17.10;99.90;;;;;;5131593;28;20046;-90
2022/07/26 07:11:32;;;;;;;0.00;0.00;;;17.00;99.90;;;;;;5130056;28;20502;-85
2022/07/26 07:14:01;;;;;;;0.00;0.00;;;17.00;99.90;;;;;;5131734;28;20126;-90
2022/07/26 07:16:28;;;;;;;0.00;0.00;;;17.00;99.90;;;;;;5120722;28;20119;-86
2022/07/26 07:18:55;;;;;;;0.00;0.00;;;16.90;99.90;;;;;;5134892;28;20124;-90
2022/07/26 07:21:21;;;;;;;0.00;0.00;;;17.00;99.90;;;;;;5122024;28;20428;-90
2022/07/26 07:23:48;;;;;;;0.00;0.00;;;17.10;99.90;;;;;;5111548;28;20510;-85
2022/07/26 07:26:15;;;;;;;0.00;0.00;;;17.20;99.90;;;;;;5165900;28;20039;-91
2022/07/26 07:28:41;;;;;;;0.00;0.00;;;17.20;99.90;;;;;;5122560;28;20047;-85
2022/07/26 07:31:08;;;;;;;0.10;0.10;;;17.40;99.90;;;;;;5117326;28;20404;-91
2022/07/26 07:33:35;;;;;;;0.00;0.00;;;17.40;99.90;;;;;;5141214;28;20484;-91
2022/07/26 07:36:02;;;;;;;0.00;0.00;;;17.40;99.90;;;;;;5147610;28;20511;-91
2022/07/26 07:38:28;;;;;;;0.00;0.00;;;17.50;99.90;;;;;;5128385;28;20119;-90
2022/07/26 07:40:55;;;;;;;0.00;0.00;;;17.60;99.90;;;;;;5073964;28;1104617;-85
2022/07/26 07:43:22;;;;;;;0.00;0.00;;;17.60;99.90;;;;;;5111520;28;20150;-85
2022/07/26 07:45:48;;;;;;;0.00;0.00;;;17.60;99.90;;;;;;5145616;28;20040;-90
2022/07/26 07:48:15;;;;;;;0.00;0.00;;;17.60;99.90;;;;;;5112825;28;20040;-92
2022/07/26 07:50:42;;;;;;;0.00;0.00;;;17.60;99.90;;;;;;5145098;28;20071;-83
2022/07/26 07:53:09;;;;;;;0.00;0.00;;;17.60;99.90;;;;;;5132855;28;20447;-86
2022/07/26 07:55:42;;;;;;;0.00;0.00;;;17.70;99.90;;;;;;5129587;28;20045;-86
2022/07/26 07:58:08;;;;;;;0.00;0.00;;;17.80;99.90;;;;;;5132962;28;20039;-92
2022/07/26 08:00:35;;;;;;;0.25;0.05;;;17.90;99.90;;;;;;5115057;28;20051;-92
2022/07/26 08:03:02;;;;;;;0.00;0.00;;;18.00;99.90;;;;;;5099370;28;20043;-87
2022/07/26 08:05:29;;;;;;;0.00;0.00;;;18.00;99.90;;;;;;5114096;28;20050;-86
2022/07/26 08:07:56;;;;;;;0.00;0.00;;;18.20;99.90;;;;;;5116845;28;20036;-91
2022/07/26 08:10:28;;;;;;;0.00;0.00;;;18.40;99.90;;;;;;5098425;28;20059;-86
2022/07/26 08:12:55;;;;;;;0.10;0.10;;;18.40;99.90;;;;;;5131811;28;20059;-86
2022/07/26 08:15:22;;;;;;;0.00;0.00;;;18.60;99.90;;;;;;5097525;28;20044;-86
2022/07/26 08:17:55;;;;;;;0.00;0.00;;;18.60;99.90;;;;;;5131342;28;20122;-86
2022/07/26 08:20:25;;;;;;;0.00;0.00;;;18.50;99.90;;;;;;5131828;28;20046;-87
2022/07/26 08:22:52;;;;;;;0.30;0.10;;;18.20;99.90;;;;;;5114832;28;20836;-92
2022/07/26 08:25:19;;;;;;;0.00;0.00;;;18.10;99.90;;;;;;5111431;28;20044;-86
2022/07/26 08:27:46;;;;;;;0.35;0.20;;;17.90;99.90;;;;;;5127881;28;20126;-85
2022/07/26 08:30:13;;;;;;;0.00;0.00;;;17.90;99.90;;;;;;5162216;27;20067;-89
2022/07/26 08:32:40;;;;;;;0.00;0.00;;;17.90;99.90;;;;;;5110733;28;20451;-89
2022/07/26 08:35:07;;;;;;;0.00;0.00;;;18.00;99.90;;;;;;5111317;28;20036;-86
2022/07/26 08:37:36;;;;;;;0.10;0.10;;;18.00;99.90;;;;;;5114639;28;20051;-92
2022/07/26 08:40:04;;;;;;;0.00;0.00;;;18.10;99.90;;;;;;5114239;28;20075;-86
2022/07/26 08:42:31;;;;;;;0.13;0.00;;;18.20;99.90;;;;;;5097815;28;20063;-91
2022/07/26 08:44:58;;;;;;;0.08;0.08;;;18.10;99.90;;;;;;5131796;28;20051;-85
2022/07/26 08:47:25;;;;;;;0.00;0.00;;;18.30;99.90;;;;;;5110540;28;20089;-92
2022/07/26 08:49:52;;;;;;;0.10;0.05;;;18.50;99.90;;;;;;5131699;28;20043;-91
2022/07/26 08:52:19;;;;;;;0.20;0.10;;;18.70;99.90;;;;;;5130218;28;20503;-91
2022/07/26 08:54:48;;;;;;;0.00;0.00;;;18.60;99.90;;;;;;5127423;28;20043;-84
2022/07/26 08:57:16;;;;;;;0.10;0.10;;;18.80;99.90;;;;;;5127787;28;20661;-89
2022/07/26 08:59:43;;;;;;;0.30;0.20;;;18.80;99.90;;;;;;5144032;28;20048;-85
2022/07/26 09:02:12;;;;;;;0.20;0.10;;;18.80;99.90;;;;;;5144211;28;20040;-85
2022/07/26 09:04:45;;;;;;;0.15;0.13;;;18.90;99.90;;;;;;5126932;28;20554;-90
2022/07/26 09:07:16;;;;;;;0.00;0.00;;;19.10;99.90;;;;;;5154760;27;20050;-90
2022/07/26 09:10:03;;;;;;;0.15;0.08;;;19.10;99.90;;;;;;5127088;28;20028;-92
2022/07/26 09:12:36;;;;;;;0.22;0.17;;;19.30;99.90;;;;;;5127396;28;20189;-87
2022/07/26 09:15:05;;;;;;;0.00;0.00;;;19.30;99.90;;;;;;5146558;27;20480;-86
2022/07/26 09:17:41;;;;;;;0.00;0.00;;;19.40;99.90;;;;;;5146539;28;20047;-93
2022/07/26 09:20:11;;;;;;;0.10;0.10;;;19.40;99.90;;;;;;5132906;28;20047;-85
2022/07/26 09:23:02;;;;;;;0.00;0.00;;;19.50;99.90;;;;;;5165220;27;20055;-87
2022/07/26 09:25:35;;;;;;;0.10;0.10;;;19.50;99.90;;;;;;5166071;27;20040;-85
2022/07/26 09:28:03;;;;;;;0.00;0.00;;;19.30;99.90;;;;;;5164320;27;20043;-86
2022/07/26 09:30:31;;;;;;;0.00;0.00;;;19.00;99.90;;;;;;5131010;28;20040;-89
2022/07/26 09:33:06;;;;;;;0.05;0.05;;;18.80;99.90;;;;;;5130796;28;20126;-85
2022/07/26 09:35:37;;;;;;;0.00;0.00;;;18.70;99.90;;;;;;5147634;28;20122;-85
2022/07/26 09:38:14;;;;;;;0.25;0.15;;;18.60;99.90;;;;;;5131649;28;20032;-86
2022/07/26 09:40:41;;;;;;;0.10;0.10;;;18.60;99.90;;;;;;5130578;28;20492;-88
2022/07/26 09:43:08;;;;;;;0.32;0.10;;;18.60;99.90;;;;;;5147588;28;20112;-87
2022/07/26 09:45:35;;;;;;;0.85;0.20;;;18.70;99.90;;;;;;5149939;28;20031;-81
2022/07/26 09:48:03;;;;;;;0.00;0.00;;;18.70;99.90;;;;;;5127441;28;20563;-84
2022/07/26 09:50:31;;;;;;;0.13;0.08;;;18.70;99.90;;;;;;5123915;28;20097;-90
2022/07/26 09:53:06;;;;;;;0.10;0.10;;;18.70;99.90;;;;;;5131444;28;20131;-87
2022/07/26 09:55:34;;;;;;;0.20;0.20;;;18.60;99.90;;;;;;5121966;28;20065;-90
2022/07/26 09:58:05;;;;;;;0.00;0.00;;;18.50;99.90;;;;;;5139597;28;20043;-85
2022/07/26 10:00:32;;;;;;;1.23;0.32;;;18.40;99.90;;;;;;5147567;28;20471;-85
2022/07/26 10:02:59;;;;;;;1.08;0.20;;;18.40;99.90;;;;;;5130246;28;20044;-90
2022/07/26 10:05:26;;;;;;;1.75;0.35;;;18.40;99.90;;;;;;5147226;28;20071;-90
2022/07/26 10:07:54;;;;;;;0.08;0.08;;;18.50;99.90;;;;;;5116120;28;20547;-90
2022/07/26 10:10:42;;;;;;;0.20;0.15;;;18.60;99.90;;;;;;5130562;28;20039;-85
2022/07/26 10:13:09;;;;;;;0.63;0.15;;;18.70;99.90;;;;;;5129625;28;20061;-86
2022/07/26 10:15:45;;;;;;;0.10;0.10;;;18.80;99.90;;;;;;5126559;28;20040;-91
2022/07/26 10:18:30;;;;;;;;;;;18.90;99.90;;;;;;5129885;28;20079;-86
2022/07/26 10:20:57;;;;;;;0.35;0.35;;;18.80;99.90;;;;;;5123649;28;20008;-90
2022/07/26 10:23:45;;;;;;;0.10;0.10;;;18.80;99.90;;;;;;5110131;28;20043;-91
2022/07/26 10:26:32;;;;;;;0.10;0.10;;;18.90;99.90;;;;;;5156911;28;20048;-86
2022/07/26 10:29:17;;;;;;;1.55;0.52;;;18.90;99.90;;;;;;5111059;28;20040;-86
2022/07/26 10:31:48;;;;;;;0.10;0.10;;;18.80;99.90;;;;;;5116674;28;20040;-91
2022/07/26 10:34:32;;;;;;;0.10;0.10;;;18.70;99.90;;;;;;5149845;28;20311;-92
2022/07/26 10:37:01;;;;;;;0.10;0.10;;;18.70;99.90;;;;;;5133229;28;20079;-86
2022/07/26 10:39:28;;;;;;;0.10;0.10;;;18.70;99.90;;;;;;5149855;28;20419;-91
2022/07/26 10:42:04;;;;;;;0.00;0.00;;;18.80;99.90;;;;;;5150265;28;20134;-90
2022/07/26 10:44:38;;;;;;;0.10;0.10;;;18.80;99.90;;;;;;5150368;28;20042;-86
2022/07/26 10:47:07;;;;;;;0.45;0.10;;;18.90;99.90;;;;;;5132257;28;20054;-89
2022/07/26 10:49:40;;;;;;;2.42;0.40;;;18.90;99.90;;;;;;5160008;27;20104;-86
2022/07/26 10:52:14;;;;;;;1.55;0.20;;;19.00;99.90;;;;;;5128259;28;20399;-90
2022/07/26 10:54:59;;;;;;;0.20;0.10;;;19.10;99.90;;;;;;5158119;27;20070;-86
2022/07/26 10:57:30;;;;;;;0.10;0.10;;;19.20;99.90;;;;;;5148451;28;20491;-89
2022/07/26 10:59:58;;;;;;;0.10;0.10;;;19.10;99.90;;;;;;5121742;28;20036;-89
2022/07/26 11:02:34;;;;;;;0.00;0.00;;;19.30;99.90;;;;;;5145595;28;20043;-86
2022/07/26 11:05:16;;;;;;;0.75;0.15;;;19.30;99.90;;;;;;5132693;28;20096;-89
2022/07/26 11:07:53;;;;;;;0.10;0.10;;;19.30;99.90;;;;;;5133255;28;20031;-88
2022/07/26 11:10:41;;;;;;;0.55;0.50;;;19.30;99.90;;;;;;5133394;28;20039;-89
2022/07/26 11:13:19;;;;;;;0.32;0.10;;;19.30;99.90;;;;;;5132624;28;20468;-87
2022/07/26 11:15:50;;;;;;;0.22;0.20;;;19.30;99.90;;;;;;5146476;28;20036;-85
2022/07/26 11:18:31;;;;;;;0.30;0.20;;;19.30;99.90;;;;;;5112292;28;20036;-89
2022/07/26 11:21:10;;;;;;;0.10;0.10;;;19.50;99.90;;;;;;5112595;28;20078;-89
2022/07/26 11:23:41;;;;;;;0.10;0.10;;;19.60;99.90;;;;;;5129277;28;20040;-86
2022/07/26 11:26:16;;;;;;;0.00;0.00;;;19.80;99.90;;;;;;5147633;28;20501;-86
2022/07/26 11:28:57;;;;;;;0.00;0.00;;;20.00;99.90;;;;;;5131850;28;20514;-90
2022/07/26 11:31:34;;;;;;;0.00;0.00;;;19.90;99.90;;;;;;5132802;28;20177;-90
2022/07/26 11:34:02;;;;;;;0.15;0.10;;;19.70;99.90;;;;;;5127020;28;20036;-89
2022/07/26 11:36:43;;;;;;;0.00;0.00;;;19.60;99.90;;;;;;5134887;28;20035;-86
2022/07/26 11:39:19;;;;;;;0.55;0.15;;;19.60;99.90;;;;;;5117173;28;20118;-87
2022/07/26 11:41:46;;;;;;;0.30;0.10;;;19.60;99.90;;;;;;5149952;27;20737;-85
2022/07/26 11:44:21;;;;;;;0.10;0.10;;;19.50;99.90;;;;;;5119425;28;20043;-91
2022/07/26 11:46:48;;;;;;;1.45;0.25;;;19.40;99.90;;;;;;5139343;28;20615;-86
2022/07/26 11:49:27;;;;;;;0.00;0.00;;;19.40;99.90;;;;;;5154935;27;20123;-86
2022/07/26 11:51:58;;;;;;;0.00;0.00;;;19.50;99.90;;;;;;5122611;28;20057;-90
2022/07/26 11:54:27;;;;;;;0.00;0.00;;;19.60;99.90;;;;;;5123596;28;20036;-90
2022/07/26 11:57:01;;;;;;;0.15;0.10;;;19.60;99.90;;;;;;5130736;28;20496;-86
2022/07/26 11:59:33;;;;;;;0.10;0.10;;;19.80;99.90;;;;;;5112935;28;20040;-86
2022/07/26 12:02:01;;;;;;;0.22;0.15;;;19.70;99.90;;;;;;5145879;28;20051;-90
2022/07/26 12:04:38;;;;;;;0.08;0.08;;;19.70;99.90;;;;;;5128696;28;20048;-91
2022/07/26 12:07:11;;;;;;;0.10;0.10;;;19.60;99.90;;;;;;5127788;28;20481;-90
2022/07/26 12:09:40;;;;;;;0.00;0.00;;;19.70;99.90;;;;;;5161923;27;20040;-86
2022/07/26 12:12:20;;;;;;;0.05;0.00;;;19.70;99.90;;;;;;5131804;28;20065;-90
2022/07/26 12:15:02;;;;;;;0.00;0.00;;;19.80;99.90;;;;;;5132212;28;20080;-86
2022/07/26 12:17:29;;;;;;;0.00;0.00;;;19.80;99.90;;;;;;5129496;28;20036;-91
2022/07/26 12:20:13;;;;;;;0.68;0.20;;;19.80;99.90;;;;;;5131990;28;20078;-83
2022/07/26 12:22:40;;;;;;;0.10;0.10;;;19.80;99.90;;;;;;5131398;28;20044;-86
2022/07/26 12:25:07;;;;;;;0.40;0.25;;;19.70;99.90;;;;;;5158297;27;20127;-85
2022/07/26 12:27:44;;;;;;;0.03;0.03;;;19.80;99.90;;;;;;5135138;28;20123;-86
2022/07/26 12:30:11;;;;;;;0.00;0.00;;;19.70;99.90;;;;;;5145099;28;20106;-88
2022/07/26 12:32:43;;;;;;;0.00;0.00;;;19.70;99.90;;;;;;5111563;28;20040;-89
2022/07/26 12:35:26;;;;;;;0.00;0.00;;;19.80;99.90;;;;;;5145431;28;20040;-89
2022/07/26 12:37:53;;;;;;;0.00;0.00;;;19.80;99.90;;;;;;5111622;28;20483;-89
2022/07/26 12:40:28;;;;;;;0.03;0.03;;;19.80;99.90;;;;;;5133235;28;20043;-88
2022/07/26 12:42:59;;;;;;;0.63;0.22;;;19.80;99.90;;;;;;5114445;28;20567;-90
2022/07/26 12:45:32;;;;;;;0.15;0.10;;;19.70;99.90;;;;;;5130976;28;20520;-87
2022/07/26 12:48:00;;;;;;;0.05;0.05;;;19.80;99.90;;;;;;5131454;28;20043;-89
2022/07/26 12:50:29;;;;;;;0.10;0.00;;;19.80;99.90;;;;;;5098038;28;20466;-87
2022/07/26 12:53:01;;;;;;;0.10;0.00;;;19.90;99.90;;;;;;5131288;28;20035;-87
2022/07/26 12:55:28;;;;;;;0.00;0.00;;;19.90;99.90;;;;;;5148169;28;20496;-90
2022/07/26 12:57:55;;;;;;;0.10;0.10;;;20.00;99.90;;;;;;5148856;28;20043;-88
2022/07/26 13:00:22;;;;;;;0.35;0.20;;;19.90;99.90;;;;;;5131043;28;20050;-88